Time;durP1;ratioP1;P1;durP2;ratioP2;P2;SDS_P1;SDS_P2;PMS_P1;PMS_P2;Temp;Humidity;BMP_temperature;BMP_pressure;BME280_temperature;BME280_humidity;BME280_pressure;Samples;Min_cycle;Max_cycle;Signal;HPM_P1;HPM_P2
2022/06/27 00:01:21;;;;;;;4.85;3.15;;;;;;;21.10;100.00;99023.75;4437370;32;20068;-67
2022/06/27 00:03:48;;;;;;;7.97;3.28;;;;;;;21.10;100.00;99029.25;4416792;32;20079;-68
2022/06/27 00:06:14;;;;;;;3.80;3.50;;;;;;;21.19;100.00;99054.72;4430549;32;20038;-66
2022/06/27 00:08:40;;;;;;;4.50;3.30;;;;;;;21.22;100.00;99059.50;4432402;32;20063;-67
2022/06/27 00:11:07;;;;;;;8.57;4.22;;;;;;;21.16;100.00;99055.34;4432043;32;20042;-66
2022/06/27 00:13:34;;;;;;;5.30;3.08;;;;;;;21.13;100.00;99054.03;4431984;32;20038;-67
2022/06/27 00:16:00;;;;;;;3.37;3.08;;;;;;;21.12;100.00;99051.62;4432327;32;20041;-66
2022/06/27 00:18:27;;;;;;;4.43;2.72;;;;;;;21.02;100.00;99050.78;4432423;32;20435;-67
2022/06/27 00:20:53;;;;;;;5.47;3.28;;;;;;;20.94;100.00;99043.38;4418067;32;20038;-69
2022/06/27 00:23:19;;;;;;;3.53;3.20;;;;;;;21.05;100.00;99055.63;4415543;32;20064;-67
2022/06/27 00:25:46;;;;;;;3.25;3.00;;;;;;;21.01;100.00;99049.19;4421705;32;20076;-68
2022/06/27 00:28:12;;;;;;;3.90;3.60;;;;;;;21.01;100.00;99043.72;4432006;32;20030;-67
2022/06/27 00:30:39;;;;;;;3.75;3.45;;;;;;;21.01;100.00;99046.47;4432053;32;20060;-69
2022/06/27 00:33:06;;;;;;;7.03;2.90;;;;;;;21.04;100.00;99043.09;4432304;32;20443;-67
2022/06/27 00:35:32;;;;;;;5.43;2.80;;;;;;;20.76;100.00;99006.12;4432207;32;20034;-67
2022/06/27 00:37:58;;;;;;;4.40;3.10;;;;;;;20.85;100.00;99012.44;4431450;32;20038;-66
2022/06/27 00:40:25;;;;;;;4.25;3.75;;;;;;;21.05;100.00;99050.16;4430946;32;20434;-67
2022/06/27 00:42:52;;;;;;;4.60;3.20;;;;;;;20.97;100.00;99048.22;4431058;32;20062;-66
2022/06/27 00:45:18;;;;;;;8.25;3.70;;;;;;;20.80;100.00;99015.31;4431648;32;20078;-67
2022/06/27 00:47:44;;;;;;;10.85;4.53;;;;;;;20.97;100.00;99048.22;4431915;32;20046;-67
2022/06/27 00:50:11;;;;;;;12.02;2.95;;;;;;;20.77;100.00;99013.22;4416055;32;20031;-66
2022/06/27 00:52:37;;;;;;;10.38;3.08;;;;;;;21.04;100.00;99040.34;4431457;32;20389;-66
2022/06/27 00:55:06;;;;;;;5.93;2.90;;;;;;;21.08;100.00;99043.25;4431692;32;20391;-66
2022/06/27 00:57:33;;;;;;;6.70;3.05;;;;;;;21.12;100.00;99049.69;4430163;32;20056;-68
2022/06/27 00:59:59;;;;;;;3.55;3.25;;;;;;;21.17;100.00;99040.50;4416319;32;20046;-67
2022/06/27 01:02:26;;;;;;;7.95;3.00;;;;;;;21.18;100.00;99036.66;4426087;32;20086;-67
2022/06/27 01:04:52;;;;;;;3.12;2.92;;;;;;;21.16;100.00;99036.19;4431962;32;20067;-66
2022/06/27 01:07:18;;;;;;;4.12;3.00;;;;;;;20.99;100.00;99013.09;4430637;32;20059;-66
2022/06/27 01:09:45;;;;;;;4.30;3.12;;;;;;;21.16;100.00;99027.97;4430904;32;20077;-66
2022/06/27 01:12:12;;;;;;;5.07;2.85;;;;;;;21.17;100.00;99045.97;4429727;32;20038;-67
2022/06/27 01:14:38;;;;;;;6.60;3.35;;;;;;;21.17;100.00;99040.50;4430836;32;20039;-66
2022/06/27 01:17:05;;;;;;;17.77;3.33;;;;;;;21.18;100.00;99042.94;4430603;32;20086;-68
2022/06/27 01:19:32;;;;;;;4.00;3.70;;;;;;;20.92;100.00;99012.78;4430354;32;20064;-68
2022/06/27 01:21:58;;;;;;;3.28;3.03;;;;;;;20.88;100.00;99011.00;4431465;32;20046;-66
2022/06/27 01:24:27;;;;;;;5.40;4.00;;;;;;;21.03;100.00;99040.66;4430532;32;20058;-66
2022/06/27 01:26:54;;;;;;;3.55;3.25;;;;;;;21.04;100.00;99043.09;4415684;32;20350;-66
2022/06/27 01:29:22;;;;;;;3.53;3.12;;;;;;;20.78;100.00;99012.09;4415998;32;20031;-66
2022/06/27 01:31:48;;;;;;;3.55;3.28;;;;;;;20.74;100.00;99008.38;4415975;32;20058;-66
2022/06/27 01:34:16;;;;;;;4.15;2.58;;;;;;;20.91;100.00;99044.00;4416079;32;20574;-66
2022/06/27 01:36:44;;;;;;;3.60;3.30;;;;;;;20.88;100.00;99044.62;4423588;32;20042;-66
2022/06/27 01:39:23;;;;;;;3.60;3.28;;;;;;;20.61;100.00;99005.41;4430295;32;20068;-66
2022/06/27 01:41:52;;;;;;;8.23;3.08;;;;;;;20.83;100.00;99042.06;4430892;32;20060;-65
2022/06/27 01:44:23;;;;;;;3.15;2.87;;;;;;;20.60;100.00;99012.03;4430995;32;20046;-66
2022/06/27 01:46:52;;;;;;;3.30;3.00;;;;;;;20.52;100.00;99015.53;4430946;32;20063;-66
2022/06/27 01:49:21;;;;;;;5.30;3.75;;;;;;;20.63;100.00;99026.97;4414407;32;20068;-68
2022/06/27 01:51:50;;;;;;;3.70;3.40;;;;;;;20.72;100.00;99040.72;4415443;32;20027;-66
2022/06/27 01:54:22;;;;;;;3.58;3.28;;;;;;;20.49;100.00;99016.16;4415644;32;20051;-66
2022/06/27 01:56:50;;;;;;;4.93;3.70;;;;;;;20.64;100.00;99045.03;4422679;32;20067;-66
2022/06/27 01:59:18;;;;;;;7.70;3.25;;;;;;;20.58;100.00;99049.84;4430241;32;20356;-67
2022/06/27 02:01:45;;;;;;;4.50;3.95;;;;;;;20.33;100.00;99011.13;4430514;32;20111;-66
2022/06/27 02:04:14;;;;;;;7.70;3.35;;;;;;;20.32;100.00;99017.69;4429343;32;20165;-68
2022/06/27 02:06:41;;;;;;;5.50;3.65;;;;;;;20.53;100.00;99044.47;4430389;32;20029;-66
2022/06/27 02:09:10;;;;;;;4.15;3.50;;;;;;;20.21;100.00;99010.87;4430988;32;20042;-66
2022/06/27 02:11:38;;;;;;;8.93;3.55;;;;;;;20.10;100.00;99012.28;4430646;32;20343;-66
2022/06/27 02:14:10;;;;;;;3.70;3.40;;;;;;;20.08;100.00;99011.78;4425646;32;20371;-66
2022/06/27 02:16:39;;;;;;;6.90;3.58;;;;;;;20.27;100.00;99047.91;4415403;32;20042;-66
2022/06/27 02:19:06;;;;;;;7.78;3.47;;;;;;;20.22;100.00;99044.53;4415218;32;20064;-66
2022/06/27 02:21:33;;;;;;;4.45;3.65;;;;;;;20.02;100.00;99018.50;4414405;32;20050;-68
2022/06/27 02:23:59;;;;;;;3.53;3.05;;;;;;;20.25;100.00;99047.41;4414700;32;20420;-67
2022/06/27 02:26:29;;;;;;;6.95;3.50;;;;;;;20.25;100.00;99049.34;4426410;32;20087;-66
2022/06/27 02:28:57;;;;;;;10.20;3.97;;;;;;;20.00;100.00;99010.63;4433554;32;20083;-67
2022/06/27 02:31:25;;;;;;;7.62;4.18;;;;;;;20.17;100.00;99041.91;4433823;32;20060;-67
2022/06/27 02:33:53;;;;;;;3.80;3.47;;;;;;;20.21;100.00;99056.56;4434082;32;20029;-67
2022/06/27 02:36:36;;;;;;;5.90;3.12;;;;;;;20.15;100.00;99066.81;4433822;32;20063;-67
2022/06/27 02:39:04;;;;;;;10.18;3.72;;;;;;;20.20;100.00;99058.50;4433933;32;20046;-67
2022/06/27 02:41:33;;;;;;;12.27;3.37;;;;;;;20.00;100.00;99026.22;4433809;32;20358;-67
2022/06/27 02:44:02;;;;;;;7.47;4.30;;;;;;;20.27;100.00;99069.78;4433494;32;20042;-67
2022/06/27 02:46:30;;;;;;;9.25;3.10;;;;;;;20.01;100.00;99033.28;4433415;32;20046;-67
2022/06/27 02:48:58;;;;;;;3.55;2.85;;;;;;;20.20;100.00;99058.50;4433753;32;20076;-66
2022/06/27 02:51:30;;;;;;;24.48;4.72;;;;;;;20.12;100.00;99029.19;4433196;32;20359;-66
2022/06/27 02:54:02;;;;;;;5.53;3.53;;;;;;;20.28;100.00;99065.94;4432521;32;20042;-68
2022/06/27 02:56:35;;;;;;;17.62;4.07;;;;;;;20.26;100.00;99062.72;4432903;32;20190;-66
2022/06/27 02:59:06;;;;;;;4.05;3.30;;;;;;;20.22;100.00;99064.44;4432828;32;20054;-67
2022/06/27 03:01:36;;;;;;;4.40;3.35;;;;;;;20.19;100.00;99051.41;4433382;32;20035;-66
2022/06/27 03:04:03;;;;;;;4.22;3.17;;;;;;;20.18;100.00;99055.25;4433597;32;20374;-66
2022/06/27 03:06:29;;;;;;;7.45;3.70;;;;;;;20.22;100.00;99056.25;4431918;32;20042;-68
2022/06/27 03:08:56;;;;;;;7.53;3.45;;;;;;;20.14;100.00;99065.22;4427346;32;20096;-67
2022/06/27 03:11:24;;;;;;;3.65;3.35;;;;;;;20.07;100.00;99054.72;4417660;32;20042;-65
2022/06/27 03:13:52;;;;;;;7.70;3.75;;;;;;;20.01;100.00;99045.03;4417669;32;20342;-66
2022/06/27 03:16:21;;;;;;;3.47;3.17;;;;;;;20.09;100.00;99057.94;4419836;32;20064;-66
2022/06/27 03:18:48;;;;;;;4.05;3.65;;;;;;;19.95;100.00;99038.09;4430752;32;20050;-66
2022/06/27 03:21:20;;;;;;;6.05;3.40;;;;;;;20.07;100.00;99054.72;4433100;32;20050;-66
2022/06/27 03:23:52;;;;;;;13.07;3.92;;;;;;;20.01;100.00;99061.44;4432032;32;20035;-67
2022/06/27 03:26:18;;;;;;;10.75;3.55;;;;;;;20.01;100.00;99055.13;4432630;32;20429;-65
2022/06/27 03:28:48;;;;;;;8.02;3.40;;;;;;;19.79;100.00;99013.06;4432895;32;20056;-66
2022/06/27 03:31:15;;;;;;;4.45;3.67;;;;;;;20.05;100.00;99056.16;4432959;32;20035;-66
2022/06/27 03:33:44;;;;;;;6.50;3.95;;;;;;;19.77;100.00;99007.12;4432758;32;20042;-66
2022/06/27 03:36:11;;;;;;;4.55;3.95;;;;;;;19.81;100.00;99021.75;4432494;32;20042;-66
2022/06/27 03:38:38;;;;;;;4.80;3.50;;;;;;;19.92;100.00;99019.56;4432356;32;20038;-68
2022/06/27 03:41:04;;;;;;;4.10;3.67;;;;;;;20.16;100.00;99060.22;4429922;32;20042;-67
2022/06/27 03:43:31;;;;;;;6.95;3.35;;;;;;;20.27;100.00;99058.84;4432683;32;20798;-66
2022/06/27 03:45:58;;;;;;;6.70;3.58;;;;;;;20.32;100.00;99061.44;4432079;32;20181;-66
2022/06/27 03:51:12;;;;;;;5.65;3.97;;;;;;;20.39;100.00;99057.44;4427579;32;20046;-67
2022/06/27 03:53:38;;;;;;;8.77;3.22;;;;;;;20.46;100.00;99063.28;4431796;32;20026;-65
2022/06/27 03:56:05;;;;;;;3.50;3.20;;;;;;;20.50;100.00;99069.72;4418401;32;20038;-65
2022/06/27 03:58:32;;;;;;;13.20;4.68;;;;;;;20.33;100.00;99035.72;4431517;32;20066;-66
2022/06/27 04:01:00;;;;;;;9.55;3.70;;;;;;;20.34;100.00;99031.03;4432457;32;20063;-66
2022/06/27 04:03:27;;;;;;;3.83;3.37;;;;;;;20.58;100.00;99074.47;4432478;32;20126;-65
2022/06/27 04:05:54;;;;;;;7.53;3.22;;;;;;;20.44;100.00;99035.47;4430723;32;20450;-66
2022/06/27 04:08:21;;;;;;;10.38;3.35;;;;;;;20.67;100.00;99069.84;4432576;32;20073;-66
2022/06/27 04:10:48;;;;;;;5.50;4.20;;;;;;;20.66;100.00;99065.50;4430699;32;20026;-67
2022/06/27 04:13:15;;;;;;;4.05;2.50;;;;;;;20.75;100.00;99071.00;4431752;32;20047;-66
2022/06/27 04:15:43;;;;;;;5.80;2.95;;;;;;;20.50;100.00;99034.16;4432351;32;20076;-66
2022/06/27 04:18:17;;;;;;;4.32;3.00;;;;;;;20.75;100.00;99062.00;4432510;32;20056;-67
2022/06/27 04:20:47;;;;;;;13.13;3.80;;;;;;;20.88;100.00;99072.00;4420730;32;20064;-67
2022/06/27 04:23:13;;;;;;;2.87;2.70;;;;;;;20.66;100.00;99031.84;4417199;32;20344;-66
2022/06/27 04:25:46;;;;;;;3.10;2.90;;;;;;;20.88;100.00;99077.47;4415175;32;20123;-68
2022/06/27 04:28:12;;;;;;;7.93;2.90;;;;;;;20.58;100.00;99019.75;4404573;32;20389;-67
2022/06/27 04:30:40;;;;;;;4.57;3.92;;;;;;;21.02;100.00;99083.62;4419864;32;20663;-67
2022/06/27 04:33:08;;;;;;;8.15;3.15;;;;;;;20.94;100.00;99072.69;4430888;32;20107;-67
2022/06/27 04:35:36;;;;;;;3.40;2.90;;;;;;;20.85;100.00;99053.47;4431159;32;20064;-67
2022/06/27 04:38:03;;;;;;;5.43;3.40;;;;;;;21.11;100.00;99085.59;4427514;32;20067;-67
2022/06/27 04:40:32;;;;;;;4.60;3.60;;;;;;;21.08;100.00;99069.78;4424263;32;20046;-68
2022/06/27 04:42:59;;;;;;;9.02;2.92;;;;;;;21.15;100.00;99089.31;4423700;32;20386;-67
2022/06/27 04:45:26;;;;;;;5.65;3.33;;;;;;;20.98;100.00;99041.63;4423600;32;20536;-67
2022/06/27 04:47:54;;;;;;;7.75;3.33;;;;;;;21.11;100.00;99052.72;4423121;32;20060;-66
2022/06/27 04:50:22;;;;;;;9.00;4.10;;;;;;;21.39;100.00;99092.41;4423431;32;20039;-66
2022/06/27 04:52:51;;;;;;;3.53;2.95;;;;;;;21.23;100.00;99050.19;4422047;32;20043;-66
2022/06/27 04:55:20;;;;;;;6.57;3.10;;;;;;;21.35;100.00;99069.53;4424358;32;20054;-68
2022/06/27 04:57:47;;;;;;;3.28;2.97;;;;;;;21.57;100.00;99087.78;4420867;32;20114;-68
2022/06/27 05:00:15;;;;;;;6.30;3.42;;;;;;;21.60;100.00;99094.56;4420723;32;20096;-67
2022/06/27 05:02:55;;;;;;;13.82;3.90;;;;;;;21.66;100.00;99101.47;4424264;32;20034;-66
2022/06/27 05:05:24;;;;;;;5.00;2.87;;;;;;;21.76;100.00;99101.19;4423589;32;20034;-66
2022/06/27 05:07:51;;;;;;;9.75;2.87;;;;;;;21.78;100.00;99092.63;4422826;32;20068;-66
2022/06/27 05:10:25;;;;;;;9.60;3.80;;;;;;;21.87;100.00;99096.16;4422226;32;20439;-66
2022/06/27 05:12:52;;;;;;;7.03;3.03;;;;;;;21.88;100.00;99102.47;4411923;32;20080;-66
2022/06/27 05:15:18;;;;;;;4.22;3.55;;;;;;;21.92;100.00;99092.44;4416031;32;20059;-67
2022/06/27 05:17:46;;;;;;;7.68;3.80;;;;;;;21.97;100.00;99092.31;4415594;32;20072;-67
2022/06/27 05:20:12;;;;;;;7.32;3.40;;;;;;;;;;4415685;32;20341;-67
2022/06/27 05:22:39;;;;;;;2.87;2.67;;;;;;;22.00;100.00;99101.81;4415871;32;20284;-66
2022/06/27 05:25:07;;;;;;;6.03;4.12;;;;;;;21.89;100.00;99082.97;4441394;32;20115;-66
2022/06/27 05:27:35;;;;;;;3.95;3.45;;;;;;;22.15;100.00;99112.28;4445074;32;20050;-68
2022/06/27 05:30:04;;;;;;;13.98;3.97;;;;;;;22.18;100.00;99105.31;4421533;32;20422;-66
2022/06/27 05:32:31;;;;;;;9.77;3.22;;;;;;;22.26;100.00;99101.78;4414811;32;20042;-67
2022/06/27 05:34:58;;;;;;;8.43;3.33;;;;;;;22.37;100.00;99105.81;4416058;32;20072;-67
2022/06/27 05:37:24;;;;;;;3.75;3.17;;;;;;;22.43;100.00;99118.22;4426819;32;20038;-68
2022/06/27 05:39:51;;;;;;;9.85;3.40;;;;;;;22.58;100.00;99121.56;4426907;32;20046;-68
2022/06/27 05:42:18;;;;;;;6.43;3.40;;;;;;;22.62;100.00;99119.78;4413636;32;20080;-68
2022/06/27 05:44:45;;;;;;;8.73;3.05;;;;;;;22.63;100.00;99115.91;4415528;32;20038;-67
2022/06/27 05:47:13;;;;;;;20.50;3.62;;;;;;;22.65;100.00;99108.13;4414041;32;20038;-70
2022/06/27 05:49:40;;;;;;;11.05;3.17;;;;;;;22.77;100.00;99124.72;4416468;32;20072;-68
2022/06/27 05:52:07;;;;;;;13.00;4.47;;;;;;;22.62;100.00;99103.31;4431318;32;20098;-67
2022/06/27 05:54:35;;;;;;;10.20;3.08;;;;;;;22.59;100.00;99087.50;4424620;32;20039;-67
2022/06/27 05:57:04;;;;;;;12.13;3.22;;;;;;;22.77;100.00;99116.50;4430465;32;20050;-67
2022/06/27 05:59:30;;;;;;;18.55;3.55;;;;;;;22.96;100.00;99138.06;4416873;32;20042;-68
2022/06/27 06:01:59;;;;;;;9.15;4.45;;;;;;;22.78;100.00;99107.13;4414709;32;20100;-69
2022/06/27 06:04:26;;;;;;;11.40;3.10;;;;;;;22.92;100.00;99106.91;4419802;32;20368;-69
2022/06/27 06:06:53;;;;;;;18.85;4.07;;;;;;;23.20;100.00;99137.47;4429374;32;20038;-70
2022/06/27 06:09:20;;;;;;;16.42;3.37;;;;;;;23.21;100.00;99135.53;4430838;32;20104;-67
2022/06/27 06:11:54;;;;;;;9.00;3.35;;;;;;;23.27;100.00;99134.22;4428605;32;20378;-71
2022/06/27 06:14:40;;;;;;;8.85;3.58;;;;;;;23.85;100.00;99141.94;4437390;32;20072;-72
2022/06/27 06:17:07;;;;;;;14.75;3.92;;;;;;;23.85;100.00;99141.94;4412600;32;20071;-71
2022/06/27 06:19:36;;;;;;;7.57;4.30;;;;;;;23.61;100.00;99137.06;4413515;32;20039;-68
2022/06/27 06:22:03;;;;;;;3.92;3.58;;;;;;;23.58;100.00;99128.38;4413873;32;20097;-68
2022/06/27 06:24:32;;;;;;;6.68;3.97;;;;;;;23.55;100.00;99118.03;4413736;32;20115;-72
2022/06/27 06:27:00;;;;;;;12.20;4.05;;;;;;;23.76;100.00;99139.22;4413621;32;20427;-73
2022/06/27 06:31:22;;;;;;;16.85;3.50;;;;;;;24.14;100.00;99137.47;4441728;32;20502;-67
2022/06/27 06:33:53;;;;;;;3.67;3.33;;;;;;;24.14;100.00;99137.47;4421737;32;20107;-68
2022/06/27 06:36:21;;;;;;;9.25;3.35;;;;;;;23.81;100.00;99136.28;4426022;32;20128;-70
2022/06/27 06:38:49;;;;;;;6.93;3.30;;;;;;;23.88;100.00;99142.06;4421490;32;20046;-68
2022/06/27 06:41:17;;;;;;;7.62;3.60;;;;;;;23.93;100.00;99128.12;4424430;32;20038;-70
2022/06/27 06:43:45;;;;;;;7.47;3.78;;;;;;;24.05;100.00;99129.31;4424163;32;20038;-68
2022/06/27 06:46:13;;;;;;;13.45;3.33;;;;;;;23.91;100.00;99108.41;4412215;32;20069;-68
2022/06/27 06:48:42;;;;;;;6.15;3.37;;;;;;;23.99;100.00;99108.66;4422036;32;20046;-69
2022/06/27 06:51:08;;;;;;;12.13;3.90;;;;;;;24.21;100.00;99132.25;4427148;32;20096;-68
2022/06/27 06:53:38;;;;;;;22.87;4.18;;;;;;;24.25;100.00;99130.41;4428553;32;20038;-67
2022/06/27 06:56:05;;;;;;;14.98;3.33;;;;;;;24.32;100.00;99127.09;4420334;32;20215;-70
2022/06/27 06:58:32;;;;;;;9.20;3.25;;;;;;;24.29;100.00;99134.91;4423537;32;20076;-69
2022/06/27 07:00:59;;;;;;;9.25;3.08;;;;;;;24.36;100.00;99130.78;4425712;32;20108;-70
2022/06/27 07:03:26;;;;;;;8.07;3.37;;;;;;;24.43;100.00;99140.13;4424354;32;20495;-70
2022/06/27 07:05:53;;;;;;;13.07;3.50;;;;;;;24.48;100.00;99130.84;4418577;32;20066;-69
2022/06/27 07:08:19;;;;;;;3.33;3.08;;;;;;;24.56;100.00;99127.22;4425936;32;20468;-69
2022/06/27 07:10:47;;;;;;;10.23;3.17;;;;;;;24.58;100.00;99124.91;4424598;32;20071;-69
2022/06/27 07:13:14;;;;;;;7.78;2.70;;;;;;;24.42;100.00;99082.66;4428080;32;20038;-69
2022/06/27 07:15:42;;;;;;;4.07;3.22;;;;;;;24.74;100.00;99121.50;4418601;32;20375;-71
2022/06/27 07:18:10;;;;;;;6.55;2.62;;;;;;;24.83;100.00;99124.97;4414180;32;20181;-70
2022/06/27 07:20:37;;;;;;;12.65;2.97;;;;;;;24.89;100.00;99120.84;4428063;32;20497;-69
2022/06/27 07:23:04;;;;;;;3.83;2.87;;;;;;;24.98;100.00;99127.03;4425724;32;20120;-69
2022/06/27 07:25:31;;;;;;;5.15;2.85;;;;;;;24.97;100.00;99119.94;4419593;32;20091;-68
2022/06/27 07:27:59;;;;;;;9.55;2.58;;;;;;;24.87;100.00;99087.31;4412219;32;20034;-69
2022/06/27 07:30:25;;;;;;;6.45;2.62;;;;;;;24.91;100.00;99090.22;4429443;32;20037;-68
2022/06/27 07:32:52;;;;;;;3.92;2.65;;;;;;;24.92;100.00;99095.38;4438023;32;20034;-73
2022/06/27 07:35:18;;;;;;;12.77;3.03;;;;;;;25.14;100.00;99116.13;4438474;32;20041;-69
2022/06/27 07:37:49;;;;;;;5.78;2.72;;;;;;;25.22;100.00;99117.16;4441513;32;20046;-68
2022/06/27 07:40:17;;;;;;;;;;;;;;;25.09;100.00;99093.53;4443363;32;20436;-68
2022/06/27 07:42:44;;;;;;;12.88;3.70;;;;;;;25.36;100.00;99112.13;4430768;32;19937;-68
2022/06/27 07:45:12;;;;;;;10.80;2.42;;;;;;;25.45;100.00;99116.69;4417927;32;20486;-69
2022/06/27 07:47:40;;;;;;;6.70;2.25;;;;;;;25.32;100.00;99080.91;4424089;32;20050;-69
2022/06/27 07:50:07;;;;;;;10.77;2.40;;;;;;;25.43;100.00;99085.94;4430986;32;20038;-70
2022/06/27 07:53:11;;;;;;;3.47;2.50;;;;;;;25.60;100.00;99107.72;4430621;32;20041;-70
2022/06/27 07:55:24;;;;;;;11.05;2.80;;;;;;;25.55;100.00;99088.66;4421135;32;20390;-70
2022/06/27 07:57:52;;;;;;;4.35;1.85;;;;;;;25.69;100.00;99099.31;4432064;32;20197;-71
2022/06/27 08:00:19;;;;;;;4.03;2.30;;;;;;;25.62;100.00;99077.03;4432422;32;20390;-69
2022/06/27 08:02:46;;;;;;;7.95;2.50;;;;;;;25.63;100.00;99082.19;4417308;32;20516;-71
2022/06/27 08:05:12;;;;;;;9.27;2.85;;;;;;;25.89;100.00;99097.50;4416479;32;20034;-72
2022/06/27 08:07:39;;;;;;;5.25;2.75;;;;;;;25.90;100.00;99104.63;4417281;32;20039;-69
2022/06/27 08:10:06;;;;;;;9.52;2.17;;;;;;;25.93;100.00;99099.22;4410697;32;20249;-70
2022/06/27 08:12:33;;;;;;;2.42;2.20;;;;;;;25.93;100.00;99098.44;4426112;32;21364;-69
2022/06/27 08:15:00;;;;;;;7.10;2.25;;;;;;;25.93;100.00;99098.44;4429318;32;20060;-68
2022/06/27 08:17:27;;;;;;;10.00;2.35;;;;;;;25.86;100.00;99082.44;4426219;32;20064;-70
2022/06/27 08:19:53;;;;;;;7.45;2.12;;;;;;;25.93;100.00;99081.88;4425350;32;20126;-69
2022/06/27 08:22:24;;;;;;;2.55;2.35;;;;;;;26.14;100.00;99101.00;4423885;32;20057;-73
2022/06/27 08:24:51;;;;;;;3.10;2.35;;;;;;;26.23;100.00;99103.59;4419611;32;20067;-70
2022/06/27 08:27:17;;;;;;;10.88;2.62;;;;;;;26.34;100.00;99096.38;4428729;32;20054;-69
2022/06/27 08:29:43;;;;;;;6.62;2.33;;;;;;;26.33;100.00;99100.31;4429999;32;20038;-70
2022/06/27 08:32:10;;;;;;;5.68;2.30;;;;;;;26.38;100.00;99100.06;4432338;32;20038;-69
2022/06/27 08:34:37;;;;;;;4.68;2.70;;;;;;;26.38;100.00;99091.78;4428561;32;20382;-68
2022/06/27 08:37:04;;;;;;;3.62;2.83;;;;;;;26.35;100.00;99084.22;4428201;32;20059;-69
2022/06/27 08:39:32;;;;;;;9.02;3.00;;;;;;;26.24;100.00;99064.59;4430056;32;20077;-72
2022/06/27 08:41:59;;;;;;;14.00;2.83;;;;;;;26.48;100.00;99089.66;4420315;32;20057;-70
2022/06/27 08:44:28;;;;;;;3.50;3.20;;;;;;;26.59;100.00;99086.00;4424438;32;20038;-69
2022/06/27 08:46:55;;;;;;;4.82;2.28;;;;;;;26.56;100.00;99075.66;4424153;32;20051;-69
2022/06/27 08:49:22;;;;;;;8.68;3.25;;;;;;;26.60;100.00;99075.78;4418961;32;20064;-70
2022/06/27 08:51:48;;;;;;;6.00;1.98;;;;;;;26.78;100.00;99090.84;4424639;32;20034;-69
2022/06/27 08:54:15;;;;;;;4.80;2.25;;;;;;;26.63;100.00;99072.31;4423588;32;20105;-68
2022/06/27 08:56:43;;;;;;;3.22;2.53;;;;;;;26.84;100.00;99091.38;4431553;32;20050;-69
2022/06/27 08:59:09;;;;;;;7.32;2.55;;;;;;;26.93;100.00;99082.91;4426104;32;20042;-72
2022/06/27 09:01:37;;;;;;;3.30;2.08;;;;;;;26.89;100.00;99093.09;4428266;32;20051;-69
2022/06/27 09:04:09;;;;;;;11.93;3.12;;;;;;;26.74;100.00;99065.13;4431046;32;20030;-69
2022/06/27 09:06:43;;;;;;;2.40;2.20;;;;;;;26.90;100.00;99086.37;4430114;32;20071;-69
2022/06/27 09:09:11;;;;;;;5.78;2.37;;;;;;;26.98;100.00;99077.09;4431080;32;20149;-68
2022/06/27 09:11:40;;;;;;;4.07;2.92;;;;;;;26.75;99.64;99050.13;4415837;32;20039;-70
2022/06/27 09:14:28;;;;;;;5.80;2.37;;;;;;;27.03;100.00;99085.13;4414889;32;20457;-69
2022/06/27 09:16:59;;;;;;;8.52;2.60;;;;;;;27.13;100.00;99081.00;4429658;32;20458;-69
2022/06/27 09:19:54;;;;;;;5.80;2.40;;;;;;;26.99;99.44;99075.94;4426356;32;20039;-68
2022/06/27 09:22:23;;;;;;;6.95;2.12;;;;;;;26.93;100.00;99078.19;4416647;32;20055;-68
2022/06/27 09:25:01;;;;;;;3.50;2.80;;;;;;;26.94;100.00;99043.88;4416904;32;20031;-68
2022/06/27 09:27:44;;;;;;;9.60;3.10;;;;;;;27.16;100.00;99075.56;4416539;32;20372;-69
2022/06/27 09:30:22;;;;;;;3.87;2.85;;;;;;;27.35;100.00;99076.81;4417417;32;20080;-69
2022/06/27 09:32:54;;;;;;;4.78;2.05;;;;;;;27.28;100.00;99080.16;4426917;32;20097;-68
2022/06/27 09:35:25;;;;;;;2.87;2.67;;;;;;;27.19;99.75;99058.25;4431446;32;20060;-68
2022/06/27 09:37:57;;;;;;;6.00;3.35;;;;;;;27.28;99.81;99079.37;4430249;32;20089;-68
2022/06/27 09:40:25;;;;;;;4.37;2.50;;;;;;;27.00;100.00;99045.19;4425684;32;20398;-71
2022/06/27 09:42:56;;;;;;;9.75;3.08;;;;;;;26.94;100.00;99043.06;4423736;32;20405;-69
2022/06/27 09:45:25;;;;;;;9.03;2.57;;;;;;;27.27;100.00;99066.69;4424354;32;20034;-69
2022/06/27 09:48:01;;;;;;;9.45;2.83;;;;;;;27.36;100.00;99064.56;4423392;32;20505;-68
2022/06/27 09:50:29;;;;;;;5.10;2.42;;;;;;;27.58;100.00;99062.28;4422701;32;20038;-69
2022/06/27 09:52:56;;;;;;;8.93;2.62;;;;;;;27.67;100.00;99065.63;4422316;32;20076;-72
2022/06/27 09:55:23;;;;;;;9.05;3.75;;;;;;;27.58;96.47;99060.28;4422960;32;20457;-69
2022/06/27 09:57:52;;;;;;;6.10;3.12;;;;;;;27.67;95.17;99043.50;4422207;32;20054;-68
2022/06/27 10:00:20;;;;;;;4.75;3.33;;;;;;;27.66;90.86;99064.00;4422117;32;20072;-69
2022/06/27 10:02:48;;;;;;;11.80;2.97;;;;;;;27.56;90.61;99036.97;4422372;32;20046;-69
2022/06/27 10:05:16;;;;;;;6.97;2.50;;;;;;;27.75;93.66;99039.72;4416768;32;20398;-68
2022/06/27 10:08:05;;;;;;;10.43;2.87;;;;;;;28.00;94.63;99081.72;4430370;32;20046;-70
2022/06/27 10:11:01;;;;;;;3.62;2.30;;;;;;;28.13;92.58;99064.94;4424096;32;20086;-68
2022/06/27 10:13:28;;;;;;;3.97;2.22;;;;;;;28.20;95.63;99057.59;4411048;32;20035;-69
2022/06/27 10:15:58;;;;;;;2.97;2.67;;;;;;;28.25;91.52;99062.81;4426703;32;20068;-72
2022/06/27 10:18:24;;;;;;;3.28;2.97;;;;;;;28.30;93.20;99052.59;4423434;32;20072;-69
2022/06/27 10:20:51;;;;;;;5.30;2.35;;;;;;;28.41;93.75;99056.37;4431327;32;20060;-69
2022/06/27 10:23:26;;;;;;;3.97;2.30;;;;;;;28.30;91.78;99022.16;4423840;32;20034;-69
2022/06/27 10:25:53;;;;;;;7.60;2.40;;;;;;;28.53;90.87;99050.66;4423219;32;20077;-69
2022/06/27 10:28:22;;;;;;;6.03;2.20;;;;;;;28.45;92.20;99021.25;4422924;32;20043;-70
2022/06/27 10:30:53;;;;;;;4.62;3.33;;;;;;;28.33;91.83;99013.91;4406265;32;20384;-69
2022/06/27 10:33:25;;;;;;;4.00;2.30;;;;;;;28.41;87.99;99036.97;4410335;32;20052;-68
2022/06/27 10:38:33;;;;;;;7.15;2.60;;;;;;;28.66;91.14;99042.16;4406489;32;20031;-69
2022/06/27 10:41:02;;;;;;;3.83;3.25;;;;;;;28.57;90.67;99039.63;4398861;32;20072;-70
2022/06/27 10:43:45;;;;;;;2.85;2.20;;;;;;;28.69;90.89;99042.22;4405783;32;20388;-68
2022/06/27 10:46:13;;;;;;;5.05;2.50;;;;;;;28.90;88.11;99044.53;4408486;32;20132;-69
2022/06/27 10:48:46;;;;;;;7.30;2.95;;;;;;;29.25;91.85;99045.47;4412076;32;20076;-69
2022/06/27 10:51:27;;;;;;;4.20;2.30;;;;;;;29.42;86.29;99044.09;4408306;32;20400;-69
2022/06/27 10:53:59;;;;;;;7.62;2.45;;;;;;;29.02;81.30;99009.47;4407928;32;20078;-69
2022/06/27 10:56:31;;;;;;;8.25;2.58;;;;;;;29.11;78.41;99034.94;4406617;32;20440;-69
2022/06/27 10:58:58;;;;;;;5.40;2.60;;;;;;;29.21;78.67;99041.81;4411233;32;20056;-69
2022/06/27 11:01:25;;;;;;;2.40;2.30;;;;;;;29.17;79.86;99008.50;4410534;32;20056;-69
2022/06/27 11:03:52;;;;;;;3.80;2.70;;;;;;;29.69;78.08;99037.31;4398898;32;20096;-72
2022/06/27 11:06:19;;;;;;;4.55;2.15;;;;;;;29.81;79.24;99036.28;4398079;32;20053;-69
2022/06/27 11:08:47;;;;;;;2.90;2.65;;;;;;;29.57;74.26;98979.31;4402184;32;20962;-68
2022/06/27 11:11:17;;;;;;;17.05;4.10;;;;;;;29.87;75.70;99031.19;4411287;32;20464;-68
2022/06/27 11:13:44;;;;;;;4.57;2.70;;;;;;;30.32;76.91;99037.59;4414437;32;20116;-69
2022/06/27 11:16:24;;;;;;;8.23;4.53;;;;;;;30.25;76.91;99018.06;4415411;32;20068;-69
2022/06/27 11:18:54;;;;;;;5.18;3.05;;;;;;;30.29;65.76;99030.00;4414976;32;20064;-71
2022/06/27 11:21:25;;;;;;;9.63;2.80;;;;;;;30.00;71.04;99001.97;4412529;32;20031;-70
2022/06/27 11:23:56;;;;;;;5.40;3.17;;;;;;;29.88;74.08;98993.91;4417849;32;20097;-70
2022/06/27 11:26:26;;;;;;;5.03;2.45;;;;;;;30.16;75.47;99025.94;4417740;32;20056;-69
2022/06/27 11:31:57;;;;;;;3.42;3.15;;;;;;;30.63;71.87;98999.38;4413902;32;20068;-69
2022/06/27 11:34:25;;;;;;;3.30;3.10;;;;;;;30.32;80.17;99012.59;4418077;32;20050;-71
2022/06/27 11:36:52;;;;;;;5.87;2.90;;;;;;;30.69;78.81;98997.81;4413392;32;20042;-68
2022/06/27 11:39:24;;;;;;;2.67;2.50;;;;;;;30.35;75.64;99011.81;4409412;32;20041;-70
2022/06/27 11:41:59;;;;;;;5.00;3.00;;;;;;;30.65;75.57;99013.69;4404937;32;20080;-70
2022/06/27 15:17:21;;;;;;;7.40;2.70;;;;;;;31.30;51.04;98891.72;4425419;32;20325;-68